sensor_id;sensor_type;location;lat;lon;timestamp;P1;durP1;ratioP1;P2;durP2;ratioP2
22973;SDS011;11653;50.848;4.584;2024-01-15T00:01:33;39.90;;;16.67;;
22973;SDS011;11653;50.848;4.584;2024-01-15T00:03:59;36.20;;;14.87;;
22973;SDS011;11653;50.848;4.584;2024-01-15T00:06:25;34.33;;;13.83;;
22973;SDS011;11653;50.848;4.584;2024-01-15T00:08:52;42.23;;;16.00;;
22973;SDS011;11653;50.848;4.584;2024-01-15T00:11:17;43.33;;;17.20;;
22973;SDS011;11653;50.848;4.584;2024-01-15T00:13:43;29.13;;;12.17;;
22973;SDS011;11653;50.848;4.584;2024-01-15T00:16:09;39.70;;;16.50;;
22973;SDS011;11653;50.848;4.584;2024-01-15T00:18:35;29.17;;;11.57;;
22973;SDS011;11653;50.848;4.584;2024-01-15T00:21:01;36.73;;;16.23;;
22973;SDS011;11653;50.848;4.584;2024-01-15T00:23:26;34.30;;;14.23;;
22973;SDS011;11653;50.848;4.584;2024-01-15T00:25:52;37.93;;;16.20;;
22973;SDS011;11653;50.848;4.584;2024-01-15T00:28:18;40.50;;;17.33;;
22973;SDS011;11653;50.848;4.584;2024-01-15T00:30:43;27.80;;;12.93;;
22973;SDS011;11653;50.848;4.584;2024-01-15T00:33:09;35.07;;;15.20;;
22973;SDS011;11653;50.848;4.584;2024-01-15T00:35:37;30.67;;;14.03;;
22973;SDS011;11653;50.848;4.584;2024-01-15T00:38:03;35.07;;;14.93;;
22973;SDS011;11653;50.848;4.584;2024-01-15T00:40:28;32.43;;;14.60;;
22973;SDS011;11653;50.848;4.584;2024-01-15T00:42:54;42.77;;;14.83;;
22973;SDS011;11653;50.848;4.584;2024-01-15T00:45:19;31.93;;;13.57;;
22973;SDS011;11653;50.848;4.584;2024-01-15T00:47:45;30.97;;;12.37;;
22973;SDS011;11653;50.848;4.584;2024-01-15T00:50:11;25.47;;;11.07;;
22973;SDS011;11653;50.848;4.584;2024-01-15T00:52:37;27.53;;;13.10;;
22973;SDS011;11653;50.848;4.584;2024-01-15T00:55:03;26.53;;;13.27;;
22973;SDS011;11653;50.848;4.584;2024-01-15T00:57:29;23.20;;;11.27;;
22973;SDS011;11653;50.848;4.584;2024-01-15T00:59:55;22.00;;;11.37;;
22973;SDS011;11653;50.848;4.584;2024-01-15T01:02:21;30.60;;;13.07;;
22973;SDS011;11653;50.848;4.584;2024-01-15T01:04:47;22.90;;;11.37;;
22973;SDS011;11653;50.848;4.584;2024-01-15T01:07:12;19.97;;;9.53;;
22973;SDS011;11653;50.848;4.584;2024-01-15T01:09:38;18.87;;;8.83;;
22973;SDS011;11653;50.848;4.584;2024-01-15T01:12:04;25.03;;;10.87;;
22973;SDS011;11653;50.848;4.584;2024-01-15T01:14:29;27.67;;;12.43;;
22973;SDS011;11653;50.848;4.584;2024-01-15T01:16:55;27.40;;;11.70;;
22973;SDS011;11653;50.848;4.584;2024-01-15T01:19:21;26.63;;;11.40;;
22973;SDS011;11653;50.848;4.584;2024-01-15T01:21:46;24.70;;;12.13;;
22973;SDS011;11653;50.848;4.584;2024-01-15T01:24:12;19.20;;;8.50;;
22973;SDS011;11653;50.848;4.584;2024-01-15T01:26:38;19.33;;;9.10;;
22973;SDS011;11653;50.848;4.584;2024-01-15T01:29:03;19.60;;;9.63;;
22973;SDS011;11653;50.848;4.584;2024-01-15T01:31:29;17.40;;;9.30;;
22973;SDS011;11653;50.848;4.584;2024-01-15T01:33:54;16.43;;;9.13;;
22973;SDS011;11653;50.848;4.584;2024-01-15T01:36:20;22.33;;;10.27;;
22973;SDS011;11653;50.848;4.584;2024-01-15T01:38:46;17.73;;;9.73;;
22973;SDS011;11653;50.848;4.584;2024-01-15T01:41:11;21.90;;;10.87;;
22973;SDS011;11653;50.848;4.584;2024-01-15T01:43:37;30.37;;;10.70;;
22973;SDS011;11653;50.848;4.584;2024-01-15T01:46:03;16.50;;;9.03;;
22973;SDS011;11653;50.848;4.584;2024-01-15T01:48:30;20.33;;;9.90;;
22973;SDS011;11653;50.848;4.584;2024-01-15T01:50:57;20.83;;;10.10;;
22973;SDS011;11653;50.848;4.584;2024-01-15T01:53:25;17.63;;;10.13;;
22973;SDS011;11653;50.848;4.584;2024-01-15T01:55:52;19.13;;;10.40;;
22973;SDS011;11653;50.848;4.584;2024-01-15T01:58:18;22.30;;;10.90;;
22973;SDS011;11653;50.848;4.584;2024-01-15T02:00:45;13.70;;;7.53;;
22973;SDS011;11653;50.848;4.584;2024-01-15T02:03:12;20.50;;;10.47;;
22973;SDS011;11653;50.848;4.584;2024-01-15T02:05:37;20.50;;;10.17;;
22973;SDS011;11653;50.848;4.584;2024-01-15T02:08:05;20.93;;;10.40;;
22973;SDS011;11653;50.848;4.584;2024-01-15T02:10:31;21.93;;;10.50;;
22973;SDS011;11653;50.848;4.584;2024-01-15T02:12:57;19.70;;;10.30;;
22973;SDS011;11653;50.848;4.584;2024-01-15T02:15:23;18.40;;;10.13;;
22973;SDS011;11653;50.848;4.584;2024-01-15T02:17:58;22.70;;;10.67;;
22973;SDS011;11653;50.848;4.584;2024-01-15T02:20:25;19.60;;;9.70;;
22973;SDS011;11653;50.848;4.584;2024-01-15T02:22:51;21.47;;;10.80;;
22973;SDS011;11653;50.848;4.584;2024-01-15T02:25:17;20.47;;;9.93;;
22973;SDS011;11653;50.848;4.584;2024-01-15T02:27:44;17.27;;;9.47;;
22973;SDS011;11653;50.848;4.584;2024-01-15T02:30:11;16.17;;;9.30;;
22973;SDS011;11653;50.848;4.584;2024-01-15T02:32:37;15.67;;;7.73;;
22973;SDS011;11653;50.848;4.584;2024-01-15T02:35:03;19.67;;;10.23;;
22973;SDS011;11653;50.848;4.584;2024-01-15T02:37:29;15.87;;;8.40;;
22973;SDS011;11653;50.848;4.584;2024-01-15T02:39:55;21.03;;;9.83;;
22973;SDS011;11653;50.848;4.584;2024-01-15T02:42:20;17.47;;;8.40;;
22973;SDS011;11653;50.848;4.584;2024-01-15T02:44:46;17.13;;;8.90;;
22973;SDS011;11653;50.848;4.584;2024-01-15T02:47:13;20.67;;;9.57;;
22973;SDS011;11653;50.848;4.584;2024-01-15T02:49:39;22.00;;;8.17;;
22973;SDS011;11653;50.848;4.584;2024-01-15T02:52:05;17.20;;;8.47;;
22973;SDS011;11653;50.848;4.584;2024-01-15T02:54:31;14.77;;;8.07;;
22973;SDS011;11653;50.848;4.584;2024-01-15T02:56:56;15.77;;;7.80;;
22973;SDS011;11653;50.848;4.584;2024-01-15T02:59:22;16.00;;;7.57;;
22973;SDS011;11653;50.848;4.584;2024-01-15T03:01:48;20.40;;;10.17;;
22973;SDS011;11653;50.848;4.584;2024-01-15T03:04:13;16.73;;;9.30;;
22973;SDS011;11653;50.848;4.584;2024-01-15T03:06:39;16.57;;;8.57;;
22973;SDS011;11653;50.848;4.584;2024-01-15T03:09:05;15.47;;;7.93;;
22973;SDS011;11653;50.848;4.584;2024-01-15T03:11:36;15.50;;;8.37;;
22973;SDS011;11653;50.848;4.584;2024-01-15T03:14:06;15.87;;;8.43;;
22973;SDS011;11653;50.848;4.584;2024-01-15T03:16:31;15.07;;;8.63;;
22973;SDS011;11653;50.848;4.584;2024-01-15T03:18:57;15.20;;;8.20;;
22973;SDS011;11653;50.848;4.584;2024-01-15T03:21:23;17.40;;;8.50;;
22973;SDS011;11653;50.848;4.584;2024-01-15T03:23:48;12.73;;;8.37;;
22973;SDS011;11653;50.848;4.584;2024-01-15T03:26:14;15.00;;;8.67;;
22973;SDS011;11653;50.848;4.584;2024-01-15T03:28:40;14.30;;;8.37;;
22973;SDS011;11653;50.848;4.584;2024-01-15T03:31:07;14.63;;;8.50;;
22973;SDS011;11653;50.848;4.584;2024-01-15T03:33:32;18.40;;;8.47;;
22973;SDS011;11653;50.848;4.584;2024-01-15T03:35:58;19.63;;;9.80;;
22973;SDS011;11653;50.848;4.584;2024-01-15T03:38:24;15.47;;;9.47;;
22973;SDS011;11653;50.848;4.584;2024-01-15T03:40:49;18.03;;;10.37;;
22973;SDS011;11653;50.848;4.584;2024-01-15T03:43:15;23.30;;;10.63;;
22973;SDS011;11653;50.848;4.584;2024-01-15T03:45:41;19.80;;;10.50;;
22973;SDS011;11653;50.848;4.584;2024-01-15T03:48:06;20.57;;;9.97;;
22973;SDS011;11653;50.848;4.584;2024-01-15T03:50:32;22.50;;;10.33;;
22973;SDS011;11653;50.848;4.584;2024-01-15T03:52:58;19.83;;;10.23;;
22973;SDS011;11653;50.848;4.584;2024-01-15T03:55:23;23.33;;;10.40;;
22973;SDS011;11653;50.848;4.584;2024-01-15T03:57:49;21.73;;;10.47;;
22973;SDS011;11653;50.848;4.584;2024-01-15T04:00:14;23.43;;;11.10;;
22973;SDS011;11653;50.848;4.584;2024-01-15T04:02:42;22.07;;;12.17;;
22973;SDS011;11653;50.848;4.584;2024-01-15T04:05:09;25.27;;;12.33;;
22973;SDS011;11653;50.848;4.584;2024-01-15T04:07:34;25.60;;;12.43;;
22973;SDS011;11653;50.848;4.584;2024-01-15T04:10:00;26.67;;;12.87;;
22973;SDS011;11653;50.848;4.584;2024-01-15T04:12:26;24.20;;;13.63;;
22973;SDS011;11653;50.848;4.584;2024-01-15T04:14:51;32.13;;;14.37;;
22973;SDS011;11653;50.848;4.584;2024-01-15T04:17:17;27.80;;;12.73;;
22973;SDS011;11653;50.848;4.584;2024-01-15T04:19:46;31.17;;;13.67;;
22973;SDS011;11653;50.848;4.584;2024-01-15T04:22:13;28.97;;;13.87;;
22973;SDS011;11653;50.848;4.584;2024-01-15T04:24:38;28.20;;;13.57;;
22973;SDS011;11653;50.848;4.584;2024-01-15T04:27:04;29.33;;;13.73;;
22973;SDS011;11653;50.848;4.584;2024-01-15T04:29:30;29.87;;;14.63;;
22973;SDS011;11653;50.848;4.584;2024-01-15T04:31:56;29.43;;;15.17;;
22973;SDS011;11653;50.848;4.584;2024-01-15T04:34:21;33.37;;;15.23;;
22973;SDS011;11653;50.848;4.584;2024-01-15T04:36:47;29.50;;;15.30;;
22973;SDS011;11653;50.848;4.584;2024-01-15T04:39:13;32.37;;;15.20;;
22973;SDS011;11653;50.848;4.584;2024-01-15T04:41:38;35.23;;;16.90;;
22973;SDS011;11653;50.848;4.584;2024-01-15T04:44:04;28.10;;;15.20;;
22973;SDS011;11653;50.848;4.584;2024-01-15T04:46:30;37.50;;;15.50;;
22973;SDS011;11653;50.848;4.584;2024-01-15T04:48:55;29.27;;;13.60;;
22973;SDS011;11653;50.848;4.584;2024-01-15T04:51:21;30.60;;;14.17;;
22973;SDS011;11653;50.848;4.584;2024-01-15T04:53:47;30.07;;;14.53;;
22973;SDS011;11653;50.848;4.584;2024-01-15T04:56:12;28.40;;;14.77;;
22973;SDS011;11653;50.848;4.584;2024-01-15T04:58:38;31.43;;;15.87;;
22973;SDS011;11653;50.848;4.584;2024-01-15T05:01:04;30.70;;;15.37;;
22973;SDS011;11653;50.848;4.584;2024-01-15T05:03:29;35.43;;;15.97;;
22973;SDS011;11653;50.848;4.584;2024-01-15T05:05:55;30.60;;;14.87;;
22973;SDS011;11653;50.848;4.584;2024-01-15T05:08:20;29.20;;;15.03;;
22973;SDS011;11653;50.848;4.584;2024-01-15T05:10:47;28.80;;;12.60;;
22973;SDS011;11653;50.848;4.584;2024-01-15T05:13:13;26.10;;;13.63;;
22973;SDS011;11653;50.848;4.584;2024-01-15T05:15:38;32.23;;;14.70;;
22973;SDS011;11653;50.848;4.584;2024-01-15T05:18:04;25.00;;;12.33;;
22973;SDS011;11653;50.848;4.584;2024-01-15T05:20:30;27.30;;;12.47;;
22973;SDS011;11653;50.848;4.584;2024-01-15T05:22:56;28.80;;;13.63;;
22973;SDS011;11653;50.848;4.584;2024-01-15T05:25:21;23.03;;;11.00;;
22973;SDS011;11653;50.848;4.584;2024-01-15T05:27:47;23.73;;;11.47;;
22973;SDS011;11653;50.848;4.584;2024-01-15T05:30:13;21.87;;;11.33;;
22973;SDS011;11653;50.848;4.584;2024-01-15T05:32:39;25.27;;;10.37;;
22973;SDS011;11653;50.848;4.584;2024-01-15T05:35:05;16.00;;;8.40;;
22973;SDS011;11653;50.848;4.584;2024-01-15T05:37:31;21.53;;;9.17;;
22973;SDS011;11653;50.848;4.584;2024-01-15T05:39:56;17.07;;;8.10;;
22973;SDS011;11653;50.848;4.584;2024-01-15T05:42:22;12.37;;;6.27;;
22973;SDS011;11653;50.848;4.584;2024-01-15T05:44:48;14.70;;;8.20;;
22973;SDS011;11653;50.848;4.584;2024-01-15T05:47:13;17.60;;;8.43;;
22973;SDS011;11653;50.848;4.584;2024-01-15T05:49:39;14.80;;;8.33;;
22973;SDS011;11653;50.848;4.584;2024-01-15T05:52:05;14.97;;;7.23;;
22973;SDS011;11653;50.848;4.584;2024-01-15T05:54:31;11.10;;;6.40;;
22973;SDS011;11653;50.848;4.584;2024-01-15T05:56:56;14.13;;;7.33;;
22973;SDS011;11653;50.848;4.584;2024-01-15T05:59:22;10.40;;;4.73;;
22973;SDS011;11653;50.848;4.584;2024-01-15T06:01:48;13.27;;;7.00;;
22973;SDS011;11653;50.848;4.584;2024-01-15T06:04:13;11.80;;;6.20;;
22973;SDS011;11653;50.848;4.584;2024-01-15T06:06:39;16.13;;;6.73;;
22973;SDS011;11653;50.848;4.584;2024-01-15T06:09:05;10.33;;;6.00;;
22973;SDS011;11653;50.848;4.584;2024-01-15T06:11:33;11.63;;;6.33;;
22973;SDS011;11653;50.848;4.584;2024-01-15T06:13:59;13.20;;;5.70;;
22973;SDS011;11653;50.848;4.584;2024-01-15T06:16:25;12.07;;;5.73;;
22973;SDS011;11653;50.848;4.584;2024-01-15T06:18:51;11.17;;;5.10;;
22973;SDS011;11653;50.848;4.584;2024-01-15T06:21:17;14.33;;;6.53;;
22973;SDS011;11653;50.848;4.584;2024-01-15T06:23:42;9.10;;;5.13;;
22973;SDS011;11653;50.848;4.584;2024-01-15T06:26:08;16.13;;;6.70;;
22973;SDS011;11653;50.848;4.584;2024-01-15T06:28:36;10.33;;;5.30;;
22973;SDS011;11653;50.848;4.584;2024-01-15T06:31:02;8.97;;;4.80;;
22973;SDS011;11653;50.848;4.584;2024-01-15T06:33:28;6.13;;;3.73;;
22973;SDS011;11653;50.848;4.584;2024-01-15T06:35:53;8.60;;;3.63;;
22973;SDS011;11653;50.848;4.584;2024-01-15T06:38:19;8.60;;;3.60;;
22973;SDS011;11653;50.848;4.584;2024-01-15T06:40:45;17.00;;;4.33;;
22973;SDS011;11653;50.848;4.584;2024-01-15T06:43:13;7.67;;;3.27;;
22973;SDS011;11653;50.848;4.584;2024-01-15T06:45:40;6.90;;;3.40;;
22973;SDS011;11653;50.848;4.584;2024-01-15T06:48:05;5.93;;;3.27;;
22973;SDS011;11653;50.848;4.584;2024-01-15T06:50:32;5.37;;;2.90;;
22973;SDS011;11653;50.848;4.584;2024-01-15T06:52:58;7.30;;;3.03;;
22973;SDS011;11653;50.848;4.584;2024-01-15T06:55:24;8.00;;;3.40;;
22973;SDS011;11653;50.848;4.584;2024-01-15T06:57:50;8.67;;;4.03;;
22973;SDS011;11653;50.848;4.584;2024-01-15T07:00:16;7.40;;;3.23;;
22973;SDS011;11653;50.848;4.584;2024-01-15T07:02:42;18.03;;;10.03;;
22973;SDS011;11653;50.848;4.584;2024-01-15T07:05:08;6.50;;;3.70;;
22973;SDS011;11653;50.848;4.584;2024-01-15T07:07:34;6.13;;;4.30;;
22973;SDS011;11653;50.848;4.584;2024-01-15T07:10:00;7.90;;;3.97;;
22973;SDS011;11653;50.848;4.584;2024-01-15T07:12:26;7.40;;;4.20;;
22973;SDS011;11653;50.848;4.584;2024-01-15T07:14:53;7.77;;;4.10;;
22973;SDS011;11653;50.848;4.584;2024-01-15T07:17:20;7.03;;;4.23;;
22973;SDS011;11653;50.848;4.584;2024-01-15T07:19:45;13.30;;;5.23;;
22973;SDS011;11653;50.848;4.584;2024-01-15T07:22:11;19.33;;;5.63;;
22973;SDS011;11653;50.848;4.584;2024-01-15T07:24:37;15.60;;;5.93;;
22973;SDS011;11653;50.848;4.584;2024-01-15T07:27:03;13.90;;;5.80;;
22973;SDS011;11653;50.848;4.584;2024-01-15T07:29:30;14.83;;;5.67;;
22973;SDS011;11653;50.848;4.584;2024-01-15T07:31:58;12.10;;;5.93;;
22973;SDS011;11653;50.848;4.584;2024-01-15T07:34:23;11.03;;;5.80;;
22973;SDS011;11653;50.848;4.584;2024-01-15T07:36:49;7.60;;;5.07;;
22973;SDS011;11653;50.848;4.584;2024-01-15T07:39:15;10.23;;;6.27;;
22973;SDS011;11653;50.848;4.584;2024-01-15T07:41:40;13.60;;;6.00;;
22973;SDS011;11653;50.848;4.584;2024-01-15T07:44:06;15.53;;;4.67;;
22973;SDS011;11653;50.848;4.584;2024-01-15T07:46:32;11.63;;;6.07;;
22973;SDS011;11653;50.848;4.584;2024-01-15T07:48:57;12.90;;;7.40;;
22973;SDS011;11653;50.848;4.584;2024-01-15T07:51:23;11.27;;;6.30;;
22973;SDS011;11653;50.848;4.584;2024-01-15T07:53:49;18.33;;;7.23;;
22973;SDS011;11653;50.848;4.584;2024-01-15T07:56:18;13.50;;;6.93;;
22973;SDS011;11653;50.848;4.584;2024-01-15T07:58:44;19.73;;;7.90;;
22973;SDS011;11653;50.848;4.584;2024-01-15T08:01:10;12.23;;;7.13;;
22973;SDS011;11653;50.848;4.584;2024-01-15T08:03:35;15.97;;;9.30;;
22973;SDS011;11653;50.848;4.584;2024-01-15T08:06:01;12.60;;;7.80;;
22973;SDS011;11653;50.848;4.584;2024-01-15T08:08:27;17.17;;;9.13;;
22973;SDS011;11653;50.848;4.584;2024-01-15T08:10:52;13.67;;;8.03;;
22973;SDS011;11653;50.848;4.584;2024-01-15T08:13:18;13.80;;;7.97;;
22973;SDS011;11653;50.848;4.584;2024-01-15T08:15:45;16.37;;;7.90;;
22973;SDS011;11653;50.848;4.584;2024-01-15T08:18:11;12.17;;;7.57;;
22973;SDS011;11653;50.848;4.584;2024-01-15T08:20:36;11.50;;;6.77;;
22973;SDS011;11653;50.848;4.584;2024-01-15T08:23:02;20.60;;;7.97;;
22973;SDS011;11653;50.848;4.584;2024-01-15T08:25:28;13.00;;;7.40;;
22973;SDS011;11653;50.848;4.584;2024-01-15T08:27:55;14.90;;;6.90;;
22973;SDS011;11653;50.848;4.584;2024-01-15T08:30:22;9.87;;;4.63;;
22973;SDS011;11653;50.848;4.584;2024-01-15T08:32:52;11.10;;;6.60;;
22973;SDS011;11653;50.848;4.584;2024-01-15T08:35:21;10.63;;;6.27;;
22973;SDS011;11653;50.848;4.584;2024-01-15T08:37:51;14.03;;;7.17;;
22973;SDS011;11653;50.848;4.584;2024-01-15T08:40:17;10.30;;;5.80;;
22973;SDS011;11653;50.848;4.584;2024-01-15T08:42:43;11.03;;;5.80;;
22973;SDS011;11653;50.848;4.584;2024-01-15T08:45:10;12.77;;;5.27;;
22973;SDS011;11653;50.848;4.584;2024-01-15T08:47:36;13.47;;;7.27;;
22973;SDS011;11653;50.848;4.584;2024-01-15T08:50:02;11.50;;;5.43;;
22973;SDS011;11653;50.848;4.584;2024-01-15T08:52:28;9.30;;;4.67;;
22973;SDS011;11653;50.848;4.584;2024-01-15T08:54:55;9.40;;;4.20;;
22973;SDS011;11653;50.848;4.584;2024-01-15T08:57:24;6.87;;;3.63;;
22973;SDS011;11653;50.848;4.584;2024-01-15T08:59:49;9.33;;;4.27;;
22973;SDS011;11653;50.848;4.584;2024-01-15T09:02:16;11.57;;;4.57;;
22973;SDS011;11653;50.848;4.584;2024-01-15T09:04:41;13.27;;;4.23;;
22973;SDS011;11653;50.848;4.584;2024-01-15T09:07:07;14.33;;;4.13;;
22973;SDS011;11653;50.848;4.584;2024-01-15T09:09:33;11.50;;;3.90;;
22973;SDS011;11653;50.848;4.584;2024-01-15T09:12:02;8.67;;;3.57;;
22973;SDS011;11653;50.848;4.584;2024-01-15T09:14:27;12.83;;;4.47;;
22973;SDS011;11653;50.848;4.584;2024-01-15T09:16:54;6.73;;;3.30;;
22973;SDS011;11653;50.848;4.584;2024-01-15T09:19:19;12.20;;;3.80;;
22973;SDS011;11653;50.848;4.584;2024-01-15T09:21:45;12.80;;;3.47;;
22973;SDS011;11653;50.848;4.584;2024-01-15T09:24:11;14.73;;;3.23;;
22973;SDS011;11653;50.848;4.584;2024-01-15T09:26:36;7.60;;;2.47;;
22973;SDS011;11653;50.848;4.584;2024-01-15T09:29:02;8.40;;;2.27;;
22973;SDS011;11653;50.848;4.584;2024-01-15T09:31:28;4.23;;;1.83;;
22973;SDS011;11653;50.848;4.584;2024-01-15T09:33:54;7.97;;;2.37;;
22973;SDS011;11653;50.848;4.584;2024-01-15T09:36:23;7.87;;;2.90;;
22973;SDS011;11653;50.848;4.584;2024-01-15T09:38:49;11.10;;;3.07;;
22973;SDS011;11653;50.848;4.584;2024-01-15T09:41:15;6.67;;;2.47;;
22973;SDS011;11653;50.848;4.584;2024-01-15T09:43:40;10.13;;;2.60;;
22973;SDS011;11653;50.848;4.584;2024-01-15T09:46:07;8.07;;;1.83;;
22973;SDS011;11653;50.848;4.584;2024-01-15T09:48:33;5.23;;;1.93;;
22973;SDS011;11653;50.848;4.584;2024-01-15T09:51:00;6.43;;;1.80;;
22973;SDS011;11653;50.848;4.584;2024-01-15T09:53:27;10.47;;;2.33;;
22973;SDS011;11653;50.848;4.584;2024-01-15T09:55:53;8.20;;;2.70;;
22973;SDS011;11653;50.848;4.584;2024-01-15T09:58:19;4.87;;;1.90;;
22973;SDS011;11653;50.848;4.584;2024-01-15T10:00:46;2.63;;;1.93;;
22973;SDS011;11653;50.848;4.584;2024-01-15T10:03:15;15.10;;;3.47;;
22973;SDS011;11653;50.848;4.584;2024-01-15T10:05:40;4.93;;;1.80;;
22973;SDS011;11653;50.848;4.584;2024-01-15T10:08:07;11.10;;;2.10;;
22973;SDS011;11653;50.848;4.584;2024-01-15T10:10:33;4.70;;;1.83;;
22973;SDS011;11653;50.848;4.584;2024-01-15T10:13:02;7.77;;;1.73;;
22973;SDS011;11653;50.848;4.584;2024-01-15T10:15:30;10.50;;;2.00;;
22973;SDS011;11653;50.848;4.584;2024-01-15T10:18:01;9.40;;;2.07;;
22973;SDS011;11653;50.848;4.584;2024-01-15T10:20:27;6.93;;;1.80;;
22973;SDS011;11653;50.848;4.584;2024-01-15T10:22:53;5.47;;;1.60;;
22973;SDS011;11653;50.848;4.584;2024-01-15T10:25:20;6.93;;;2.53;;
22973;SDS011;11653;50.848;4.584;2024-01-15T10:28:00;13.77;;;2.73;;
22973;SDS011;11653;50.848;4.584;2024-01-15T10:30:27;7.17;;;2.00;;
22973;SDS011;11653;50.848;4.584;2024-01-15T10:33:00;6.13;;;2.10;;
22973;SDS011;11653;50.848;4.584;2024-01-15T10:35:30;8.17;;;1.90;;
22973;SDS011;11653;50.848;4.584;2024-01-15T10:37:56;9.30;;;2.33;;
22973;SDS011;11653;50.848;4.584;2024-01-15T10:40:23;7.40;;;1.77;;
22973;SDS011;11653;50.848;4.584;2024-01-15T10:42:49;6.30;;;1.87;;
22973;SDS011;11653;50.848;4.584;2024-01-15T10:45:14;3.30;;;1.20;;
22973;SDS011;11653;50.848;4.584;2024-01-15T10:47:40;5.77;;;1.80;;
22973;SDS011;11653;50.848;4.584;2024-01-15T10:50:07;6.10;;;1.93;;
22973;SDS011;11653;50.848;4.584;2024-01-15T10:52:35;3.53;;;1.33;;
22973;SDS011;11653;50.848;4.584;2024-01-15T10:55:08;4.37;;;1.60;;
22973;SDS011;11653;50.848;4.584;2024-01-15T10:57:38;7.17;;;1.30;;
22973;SDS011;11653;50.848;4.584;2024-01-15T11:00:04;4.43;;;1.47;;
22973;SDS011;11653;50.848;4.584;2024-01-15T11:02:34;6.37;;;1.83;;
22973;SDS011;11653;50.848;4.584;2024-01-15T11:05:01;4.03;;;1.57;;
22973;SDS011;11653;50.848;4.584;2024-01-15T11:07:27;11.53;;;2.30;;
22973;SDS011;11653;50.848;4.584;2024-01-15T11:09:54;6.37;;;1.67;;
22973;SDS011;11653;50.848;4.584;2024-01-15T11:12:20;4.43;;;1.60;;
22973;SDS011;11653;50.848;4.584;2024-01-15T11:14:46;5.37;;;1.93;;
22973;SDS011;11653;50.848;4.584;2024-01-15T11:17:14;3.23;;;1.60;;
22973;SDS011;11653;50.848;4.584;2024-01-15T11:19:44;3.83;;;1.17;;
22973;SDS011;11653;50.848;4.584;2024-01-15T11:22:47;4.90;;;1.57;;
22973;SDS011;11653;50.848;4.584;2024-01-15T11:25:01;9.27;;;2.60;;
22973;SDS011;11653;50.848;4.584;2024-01-15T11:27:50;6.63;;;1.53;;
22973;SDS011;11653;50.848;4.584;2024-01-15T11:30:16;10.53;;;1.90;;
22973;SDS011;11653;50.848;4.584;2024-01-15T11:32:45;2.90;;;1.23;;
22973;SDS011;11653;50.848;4.584;2024-01-15T11:35:12;4.23;;;1.87;;
22973;SDS011;11653;50.848;4.584;2024-01-15T11:40:18;3.50;;;1.10;;
22973;SDS011;11653;50.848;4.584;2024-01-15T11:42:45;5.40;;;1.40;;
22973;SDS011;11653;50.848;4.584;2024-01-15T11:45:12;2.93;;;1.63;;
22973;SDS011;11653;50.848;4.584;2024-01-15T11:48:05;5.57;;;1.70;;
22973;SDS011;11653;50.848;4.584;2024-01-15T11:50:39;3.90;;;0.97;;
22973;SDS011;11653;50.848;4.584;2024-01-15T11:53:54;7.13;;;1.83;;
22973;SDS011;11653;50.848;4.584;2024-01-15T11:56:01;2.57;;;1.20;;
22973;SDS011;11653;50.848;4.584;2024-01-15T11:58:31;7.53;;;1.90;;
22973;SDS011;11653;50.848;4.584;2024-01-15T12:00:57;7.67;;;2.63;;
22973;SDS011;11653;50.848;4.584;2024-01-15T12:03:23;7.90;;;1.43;;
22973;SDS011;11653;50.848;4.584;2024-01-15T12:05:49;7.73;;;1.23;;
22973;SDS011;11653;50.848;4.584;2024-01-15T12:08:26;5.70;;;1.63;;
22973;SDS011;11653;50.848;4.584;2024-01-15T12:10:52;6.77;;;1.50;;
22973;SDS011;11653;50.848;4.584;2024-01-15T12:13:18;5.13;;;1.93;;
22973;SDS011;11653;50.848;4.584;2024-01-15T12:15:46;5.37;;;1.47;;
22973;SDS011;11653;50.848;4.584;2024-01-15T12:18:14;8.87;;;1.77;;
22973;SDS011;11653;50.848;4.584;2024-01-15T12:20:41;3.07;;;1.10;;
22973;SDS011;11653;50.848;4.584;2024-01-15T12:23:07;2.47;;;1.00;;
22973;SDS011;11653;50.848;4.584;2024-01-15T12:25:33;5.60;;;1.40;;
22973;SDS011;11653;50.848;4.584;2024-01-15T12:28:00;3.63;;;1.33;;
22973;SDS011;11653;50.848;4.584;2024-01-15T12:30:26;6.07;;;1.70;;
22973;SDS011;11653;50.848;4.584;2024-01-15T12:32:53;6.40;;;1.90;;
22973;SDS011;11653;50.848;4.584;2024-01-15T12:35:19;9.17;;;1.80;;
22973;SDS011;11653;50.848;4.584;2024-01-15T12:37:45;4.33;;;1.43;;
22973;SDS011;11653;50.848;4.584;2024-01-15T12:40:12;6.33;;;1.80;;
22973;SDS011;11653;50.848;4.584;2024-01-15T12:42:40;9.03;;;2.03;;
22973;SDS011;11653;50.848;4.584;2024-01-15T12:45:07;5.20;;;1.50;;
22973;SDS011;11653;50.848;4.584;2024-01-15T12:47:34;8.60;;;1.80;;
22973;SDS011;11653;50.848;4.584;2024-01-15T12:50:01;6.67;;;1.40;;
22973;SDS011;11653;50.848;4.584;2024-01-15T12:52:27;5.13;;;1.97;;
22973;SDS011;11653;50.848;4.584;2024-01-15T12:54:53;5.53;;;2.00;;
22973;SDS011;11653;50.848;4.584;2024-01-15T12:57:18;9.43;;;1.97;;
22973;SDS011;11653;50.848;4.584;2024-01-15T12:59:44;9.03;;;1.67;;
22973;SDS011;11653;50.848;4.584;2024-01-15T13:02:13;8.97;;;1.93;;
22973;SDS011;11653;50.848;4.584;2024-01-15T13:04:39;7.83;;;1.90;;
22973;SDS011;11653;50.848;4.584;2024-01-15T13:07:05;7.30;;;1.97;;
22973;SDS011;11653;50.848;4.584;2024-01-15T13:09:32;6.97;;;1.90;;
22973;SDS011;11653;50.848;4.584;2024-01-15T13:11:58;3.23;;;1.80;;
22973;SDS011;11653;50.848;4.584;2024-01-15T13:14:24;2.57;;;1.87;;
22973;SDS011;11653;50.848;4.584;2024-01-15T13:16:50;5.27;;;2.30;;
22973;SDS011;11653;50.848;4.584;2024-01-15T13:19:16;4.67;;;1.73;;
22973;SDS011;11653;50.848;4.584;2024-01-15T13:21:42;3.53;;;1.10;;
22973;SDS011;11653;50.848;4.584;2024-01-15T13:24:08;5.43;;;2.10;;
22973;SDS011;11653;50.848;4.584;2024-01-15T13:26:34;6.87;;;2.20;;
22973;SDS011;11653;50.848;4.584;2024-01-15T13:29:02;5.73;;;1.80;;
22973;SDS011;11653;50.848;4.584;2024-01-15T13:31:28;4.20;;;1.43;;
22973;SDS011;11653;50.848;4.584;2024-01-15T13:33:57;7.40;;;1.80;;
22973;SDS011;11653;50.848;4.584;2024-01-15T13:36:24;3.07;;;1.83;;
22973;SDS011;11653;50.848;4.584;2024-01-15T13:38:50;5.00;;;1.70;;
22973;SDS011;11653;50.848;4.584;2024-01-15T13:41:17;3.80;;;1.87;;
22973;SDS011;11653;50.848;4.584;2024-01-15T13:43:53;7.13;;;2.10;;
22973;SDS011;11653;50.848;4.584;2024-01-15T13:46:25;2.00;;;1.73;;
22973;SDS011;11653;50.848;4.584;2024-01-15T13:48:54;2.23;;;1.33;;
22973;SDS011;11653;50.848;4.584;2024-01-15T13:51:23;1.50;;;1.20;;
22973;SDS011;11653;50.848;4.584;2024-01-15T13:53:49;3.67;;;1.37;;
22973;SDS011;11653;50.848;4.584;2024-01-15T13:56:15;1.00;;;1.00;;
22973;SDS011;11653;50.848;4.584;2024-01-15T13:58:41;0.83;;;0.80;;
22973;SDS011;11653;50.848;4.584;2024-01-15T14:01:08;2.97;;;1.37;;
22973;SDS011;11653;50.848;4.584;2024-01-15T14:03:34;2.57;;;0.90;;
22973;SDS011;11653;50.848;4.584;2024-01-15T14:06:00;1.77;;;0.90;;
22973;SDS011;11653;50.848;4.584;2024-01-15T14:08:28;1.03;;;0.70;;
22973;SDS011;11653;50.848;4.584;2024-01-15T14:10:54;1.70;;;0.90;;
22973;SDS011;11653;50.848;4.584;2024-01-15T14:13:22;2.43;;;1.20;;
22973;SDS011;11653;50.848;4.584;2024-01-15T14:15:47;2.43;;;1.40;;
22973;SDS011;11653;50.848;4.584;2024-01-15T14:18:15;2.37;;;1.03;;
22973;SDS011;11653;50.848;4.584;2024-01-15T14:20:41;2.87;;;1.30;;
22973;SDS011;11653;50.848;4.584;2024-01-15T14:23:07;2.70;;;1.20;;
22973;SDS011;11653;50.848;4.584;2024-01-15T14:25:33;2.77;;;1.77;;
22973;SDS011;11653;50.848;4.584;2024-01-15T14:27:59;5.07;;;1.77;;
22973;SDS011;11653;50.848;4.584;2024-01-15T14:30:25;1.67;;;1.57;;
22973;SDS011;11653;50.848;4.584;2024-01-15T14:32:50;2.33;;;2.00;;
22973;SDS011;11653;50.848;4.584;2024-01-15T14:35:16;4.37;;;2.20;;